Terminal Aerodrome Forecast
Issued by NWS Wilmington, OH

Current Version | Previous Version | Graphics & Text | Print | Product List | Glossary On
Versions: 1 2 3 4 5 6 7 8 9 10 11 12 13 14 15 16 17 18 19 20 21 22 23 24 25 26 27 28
000
FTUS41 KILN 212100 AAA
TAFCVG
TAF AMD
KCVG 212111Z 2121/2224 VRB03KT P6SM SCT050
     FM220100 VRB02KT P6SM SKC
     FM220900 00000KT 5SM BR SKC
     FM221300 19004KT P6SM SCT040=

USA.gov is the U.S. government's official web portal to all federal, state and local government web resources and services.